createdAt,value
2018-08-28T00:00:36.862Z,97482.00
2018-08-28T00:03:06.327Z,97484.00
2018-08-28T00:05:35.557Z,97493.00
2018-08-28T00:08:05.037Z,97491.00
2018-08-28T00:10:34.366Z,97490.00
2018-08-28T00:13:03.607Z,97493.00
2018-08-28T00:15:32.865Z,97505.00
2018-08-28T00:18:02.202Z,97500.00
2018-08-28T00:20:31.528Z,97501.00
2018-08-28T00:23:00.734Z,97505.00
2018-08-28T00:25:30.009Z,97500.00
2018-08-28T00:27:59.285Z,97496.00
2018-08-28T00:30:28.572Z,97498.00
2018-08-28T00:32:57.800Z,97494.00
2018-08-28T00:35:27.023Z,97500.00
2018-08-28T00:37:56.229Z,97499.00
2018-08-28T00:40:25.497Z,97509.00
2018-08-28T00:42:54.696Z,97513.00
2018-08-28T00:45:23.913Z,97511.00
2018-08-28T00:47:53.177Z,97509.00
2018-08-28T00:50:22.517Z,97524.00
2018-08-28T00:52:51.723Z,97520.00
2018-08-28T00:55:20.974Z,97520.00
2018-08-28T00:57:50.182Z,97520.00
2018-08-28T01:00:19.446Z,97523.00
2018-08-28T01:02:48.671Z,97523.00
2018-08-28T01:05:17.941Z,97526.00
2018-08-28T01:07:47.238Z,97525.00
2018-08-28T01:10:16.486Z,97520.00
2018-08-28T01:12:45.695Z,97523.00
2018-08-28T01:15:14.888Z,97522.00
2018-08-28T01:17:44.096Z,97525.00
2018-08-28T01:20:13.285Z,97533.00
2018-08-28T01:22:42.505Z,97526.00
2018-08-28T01:25:11.793Z,97525.00
2018-08-28T01:27:41.021Z,97520.00
2018-08-28T01:30:10.225Z,97530.00
2018-08-28T01:32:39.454Z,97505.00
2018-08-28T01:35:08.666Z,97517.00
2018-08-28T01:37:37.881Z,97509.00
2018-08-28T01:40:07.209Z,97510.00
2018-08-28T01:42:36.427Z,97515.00
2018-08-28T01:45:05.864Z,97517.00
2018-08-28T01:47:35.077Z,97529.00
2018-08-28T01:50:04.299Z,97538.00
2018-08-28T01:52:33.516Z,97534.00
2018-08-28T01:55:02.724Z,97546.00
2018-08-28T01:57:32.005Z,97536.00
2018-08-28T02:00:01.238Z,97536.00
2018-08-28T02:02:30.519Z,97540.00
2018-08-28T02:04:59.906Z,97539.00
2018-08-28T02:07:29.160Z,97535.00
2018-08-28T02:09:58.395Z,97537.00
2018-08-28T02:12:27.641Z,97540.00
2018-08-28T02:14:56.860Z,97546.00
2018-08-28T02:17:26.239Z,97538.00
2018-08-28T02:19:55.453Z,97543.00
2018-08-28T02:22:24.660Z,97544.00
2018-08-28T02:24:53.871Z,97535.00
2018-08-28T02:27:23.103Z,97539.00
2018-08-28T02:29:52.345Z,97533.00
2018-08-28T02:32:21.600Z,97526.00
2018-08-28T02:34:50.972Z,97529.00
2018-08-28T02:37:20.283Z,97527.00
2018-08-28T02:39:49.553Z,97528.00
2018-08-28T02:42:18.845Z,97543.00
2018-08-28T02:44:48.071Z,97548.00
2018-08-28T02:47:17.293Z,97545.00
2018-08-28T02:49:46.524Z,97552.00
2018-08-28T02:52:15.762Z,97544.00
2018-08-28T02:54:45.062Z,97542.00
2018-08-28T02:57:14.295Z,97560.00
2018-08-28T02:59:43.555Z,97554.00
2018-08-28T03:02:12.786Z,97556.00
2018-08-28T03:04:42.040Z,97556.00
2018-08-28T03:07:11.285Z,97571.00
2018-08-28T03:09:40.456Z,97568.00
2018-08-28T03:12:09.676Z,97566.00
2018-08-28T03:14:38.880Z,97571.00
2018-08-28T03:17:08.177Z,97569.00
2018-08-28T03:19:37.381Z,97571.00
2018-08-28T03:22:06.638Z,97581.00
2018-08-28T03:24:35.863Z,97581.00
2018-08-28T03:27:05.173Z,97574.00
2018-08-28T03:29:34.372Z,97578.00
2018-08-28T03:32:03.636Z,97581.00
2018-08-28T03:34:32.836Z,97588.00
2018-08-28T03:37:02.169Z,97577.00
2018-08-28T03:39:31.464Z,97581.00
2018-08-28T03:42:00.699Z,97584.00
2018-08-28T03:44:29.967Z,97579.00
2018-08-28T03:47:00.561Z,97581.00
2018-08-28T03:49:29.795Z,97591.00
2018-08-28T03:51:59.028Z,97592.00
2018-08-28T03:54:28.404Z,97583.00
2018-08-28T03:56:57.649Z,97588.00
2018-08-28T03:59:27.243Z,97587.00
2018-08-28T04:01:56.465Z,97585.00
2018-08-28T04:04:25.699Z,97588.00
2018-08-28T04:06:54.934Z,97588.00
2018-08-28T04:09:24.198Z,97601.00
2018-08-28T04:11:53.446Z,97604.00
2018-08-28T04:14:22.753Z,97603.00
2018-08-28T04:16:52.086Z,97617.00
2018-08-28T04:19:21.295Z,97614.00
2018-08-28T04:21:50.526Z,97624.00
2018-08-28T04:24:19.749Z,97622.00
2018-08-28T04:26:48.989Z,97619.00
2018-08-28T04:29:18.299Z,97620.00
2018-08-28T04:31:47.540Z,97618.00
2018-08-28T04:34:16.789Z,97625.00
2018-08-28T04:36:46.021Z,97624.00
2018-08-28T04:39:15.332Z,97628.00
2018-08-28T04:41:44.545Z,97631.00
2018-08-28T04:44:13.782Z,97617.00
2018-08-28T04:46:43.005Z,97622.00
2018-08-28T04:49:12.245Z,97623.00
2018-08-28T04:51:41.452Z,97624.00
2018-08-28T04:54:10.744Z,97626.00
2018-08-28T04:56:39.951Z,97630.00
2018-08-28T04:59:09.207Z,97632.00
2018-08-28T05:01:38.476Z,97638.00
2018-08-28T05:04:07.761Z,97640.00
2018-08-28T05:06:37.000Z,97637.00
2018-08-28T05:09:07.569Z,97638.00
2018-08-28T05:11:36.860Z,97643.00
2018-08-28T05:14:06.139Z,97646.00
2018-08-28T05:16:35.362Z,97643.00
2018-08-28T05:19:04.605Z,97653.00
2018-08-28T05:21:33.813Z,97655.00
2018-08-28T05:24:03.056Z,97652.00
2018-08-28T05:26:32.281Z,97659.00
2018-08-28T05:29:01.898Z,97658.00
2018-08-28T05:31:31.187Z,97655.00
2018-08-28T05:34:00.433Z,97648.00
2018-08-28T05:36:29.657Z,97656.00
2018-08-28T05:38:58.932Z,97658.00
2018-08-28T05:41:28.153Z,97666.00
2018-08-28T05:43:57.440Z,97662.00
2018-08-28T05:46:26.732Z,97666.00
2018-08-28T05:48:56.054Z,97658.00
2018-08-28T05:51:25.256Z,97663.00
2018-08-28T05:53:54.485Z,97669.00
2018-08-28T05:56:23.676Z,97667.00
2018-08-28T05:58:52.917Z,97669.00
2018-08-28T06:01:22.145Z,97670.00
2018-08-28T06:03:51.431Z,97677.00
2018-08-28T06:06:20.730Z,97684.00
2018-08-28T06:08:50.049Z,97682.00
2018-08-28T06:11:19.396Z,97676.00
2018-08-28T06:13:48.729Z,97673.00
2018-08-28T06:16:18.023Z,97684.00
2018-08-28T06:18:48.524Z,97671.00
2018-08-28T06:21:17.800Z,97677.00
2018-08-28T06:23:47.050Z,97678.00
2018-08-28T06:26:16.339Z,97682.00
2018-08-28T06:28:45.581Z,97678.00
2018-08-28T06:31:14.793Z,97678.00
2018-08-28T06:33:44.040Z,97676.00
2018-08-28T06:36:13.456Z,97689.00
2018-08-28T06:38:42.777Z,97688.00
2018-08-28T06:41:11.993Z,97683.00
2018-08-28T06:43:41.323Z,97684.00
2018-08-28T06:46:10.568Z,97680.00
2018-08-28T06:48:39.782Z,97684.00
2018-08-28T06:51:09.012Z,97689.00
2018-08-28T06:53:38.304Z,97693.00
2018-08-28T06:56:07.516Z,97694.00
2018-08-28T06:58:36.777Z,97697.00
2018-08-28T07:01:06.006Z,97697.00
2018-08-28T07:03:35.241Z,97690.00
2018-08-28T07:06:04.454Z,97692.00
2018-08-28T07:08:33.702Z,97696.00
2018-08-28T07:11:03.161Z,97699.00
2018-08-28T07:13:32.373Z,97700.00
2018-08-28T07:16:01.636Z,97710.00
2018-08-28T07:18:31.011Z,97711.00
2018-08-28T07:21:00.497Z,97711.00
2018-08-28T07:23:29.805Z,97703.00
2018-08-28T07:25:59.092Z,97712.00
2018-08-28T07:28:28.552Z,97711.00
2018-08-28T07:30:57.814Z,97742.00
2018-08-28T07:33:27.173Z,97705.00
2018-08-28T07:35:56.474Z,97719.00
2018-08-28T07:38:25.683Z,97716.00
2018-08-28T07:40:54.999Z,97719.00
2018-08-28T07:43:24.262Z,97723.00
2018-08-28T07:45:53.499Z,97723.00
2018-08-28T07:48:22.761Z,97724.00
2018-08-28T07:51:00.331Z,97730.00
2018-08-28T07:53:29.595Z,97723.00
2018-08-28T07:55:58.834Z,97728.00
2018-08-28T07:58:28.084Z,97737.00
2018-08-28T08:00:57.572Z,97737.00
2018-08-28T08:03:26.874Z,97736.00
2018-08-28T08:05:56.628Z,97740.00
2018-08-28T08:08:25.933Z,97739.00
2018-08-28T08:10:55.128Z,97742.00
2018-08-28T08:13:24.373Z,97737.00
2018-08-28T08:15:53.749Z,97744.00
2018-08-28T08:18:22.964Z,97740.00
2018-08-28T08:20:52.210Z,97742.00
2018-08-28T08:23:21.444Z,97742.00
2018-08-28T08:25:50.712Z,97755.00
2018-08-28T08:28:19.977Z,97759.00
2018-08-28T08:30:49.186Z,97757.00
2018-08-28T08:33:18.381Z,97757.00
2018-08-28T08:35:47.635Z,97752.00
2018-08-28T08:38:16.848Z,97751.00
2018-08-28T08:40:46.285Z,97754.00
2018-08-28T08:43:15.520Z,97744.00
2018-08-28T08:45:44.741Z,97746.00
2018-08-28T08:48:13.948Z,97750.00
2018-08-28T08:50:43.163Z,97750.00
2018-08-28T08:53:12.400Z,97754.00
2018-08-28T08:55:41.658Z,97752.00
2018-08-28T08:58:10.873Z,97754.00
2018-08-28T09:00:40.089Z,97755.00
2018-08-28T09:03:09.363Z,97758.00
2018-08-28T09:05:38.621Z,97760.00
2018-08-28T09:08:07.852Z,97752.00
2018-08-28T09:10:37.306Z,97760.00
2018-08-28T09:13:06.548Z,97758.00
2018-08-28T09:15:35.757Z,97756.00
2018-08-28T09:18:05.165Z,97754.00
2018-08-28T09:20:34.430Z,97748.00
2018-08-28T09:23:03.746Z,97750.00
2018-08-28T09:25:32.995Z,97747.00
2018-08-28T09:28:02.220Z,97753.00
2018-08-28T09:30:31.754Z,97746.00
2018-08-28T09:33:01.149Z,97757.00
2018-08-28T09:35:30.405Z,97746.00
2018-08-28T09:37:59.616Z,97752.00
2018-08-28T09:40:28.833Z,97751.00
2018-08-28T09:42:58.041Z,97749.00
2018-08-28T09:45:27.270Z,97751.00
2018-08-28T09:47:56.528Z,97754.00
2018-08-28T09:50:25.891Z,97755.00
2018-08-28T09:52:55.018Z,97757.00
2018-08-28T09:55:24.233Z,97749.00
2018-08-28T09:57:53.459Z,97754.00
2018-08-28T10:00:28.362Z,97750.00
2018-08-28T10:02:58.614Z,97753.00
2018-08-28T10:05:27.985Z,97748.00
2018-08-28T10:07:57.344Z,97752.00
2018-08-28T10:10:26.547Z,97759.00
2018-08-28T10:12:55.793Z,97765.00
2018-08-28T10:15:25.034Z,97766.00
2018-08-28T10:17:54.285Z,97756.00
2018-08-28T10:20:23.537Z,97756.00
2018-08-28T10:22:52.743Z,97756.00
2018-08-28T10:25:22.015Z,97756.00
2018-08-28T10:27:51.231Z,97760.00
2018-08-28T10:30:20.670Z,97757.00
2018-08-28T10:32:49.862Z,97753.00
2018-08-28T10:35:19.130Z,97746.00
2018-08-28T10:37:48.389Z,97755.00
2018-08-28T10:40:17.631Z,97748.00
2018-08-28T10:42:46.885Z,97741.00
2018-08-28T10:45:16.212Z,97749.00
2018-08-28T10:47:45.581Z,97748.00
2018-08-28T10:50:14.830Z,97747.00
2018-08-28T10:52:44.167Z,97742.00
2018-08-28T10:55:13.381Z,97739.00
2018-08-28T10:57:42.629Z,97726.00
2018-08-28T11:00:11.899Z,97728.00
2018-08-28T11:02:41.100Z,97722.00
2018-08-28T11:05:10.370Z,97736.00
2018-08-28T11:07:39.772Z,97738.00
2018-08-28T11:10:09.756Z,97744.00
2018-08-28T11:12:38.978Z,97741.00
2018-08-28T11:15:08.346Z,97747.00
2018-08-28T11:17:37.613Z,97744.00
2018-08-28T11:20:07.098Z,97746.00
2018-08-28T11:22:36.371Z,97743.00
2018-08-28T11:25:06.078Z,97741.00
2018-08-28T11:27:36.341Z,97737.00
2018-08-28T11:30:05.609Z,97743.00
2018-08-28T11:32:34.882Z,97748.00
2018-08-28T11:35:04.391Z,97740.00
2018-08-28T11:37:33.714Z,97755.00
2018-08-28T11:40:02.979Z,97744.00
2018-08-28T11:42:32.265Z,97742.00
2018-08-28T11:45:01.474Z,97750.00
2018-08-28T11:47:30.744Z,97750.00
2018-08-28T11:49:59.952Z,97742.00
2018-08-28T11:52:29.209Z,97755.00
2018-08-28T11:54:58.441Z,97750.00
2018-08-28T11:57:27.681Z,97751.00
2018-08-28T11:59:56.929Z,97742.00
2018-08-28T12:02:26.177Z,97737.00
2018-08-28T12:04:55.510Z,97739.00
2018-08-28T12:07:24.778Z,97733.00
2018-08-28T12:09:53.977Z,97744.00
2018-08-28T12:12:23.199Z,97744.00
2018-08-28T12:14:52.477Z,97737.00
2018-08-28T12:17:21.752Z,97739.00
2018-08-28T12:19:50.961Z,97731.00
2018-08-28T12:22:20.217Z,97726.00
2018-08-28T12:24:49.441Z,97724.00
2018-08-28T12:27:18.696Z,97726.00
2018-08-28T12:29:48.100Z,97721.00
2018-08-28T12:32:17.333Z,97723.00
2018-08-28T12:34:46.596Z,97726.00
2018-08-28T12:37:15.912Z,97729.00
2018-08-28T12:39:45.104Z,97720.00
2018-08-28T12:42:14.309Z,97722.00
2018-08-28T12:44:43.502Z,97725.00
2018-08-28T12:47:12.733Z,97721.00
2018-08-28T12:49:41.980Z,97719.00
2018-08-28T12:52:11.230Z,97709.00
2018-08-28T12:54:40.528Z,97707.00
2018-08-28T12:57:09.728Z,97700.00
2018-08-28T12:59:38.950Z,97703.00
2018-08-28T13:02:08.275Z,97690.00
2018-08-28T13:04:37.525Z,97696.00
2018-08-28T13:07:06.844Z,97698.00
2018-08-28T13:09:36.101Z,97698.00
2018-08-28T13:12:05.381Z,97692.00
2018-08-28T13:14:34.843Z,97695.00
2018-08-28T13:17:04.459Z,97694.00
2018-08-28T13:19:33.741Z,97688.00
2018-08-28T13:22:02.986Z,97697.00
2018-08-28T13:24:32.201Z,97694.00
2018-08-28T13:27:01.414Z,97691.00
2018-08-28T13:29:30.728Z,97693.00
2018-08-28T13:31:59.950Z,97691.00
2018-08-28T13:34:29.161Z,97688.00
2018-08-28T13:36:58.425Z,97692.00
2018-08-28T13:39:27.643Z,97696.00
2018-08-28T13:41:56.904Z,97683.00
2018-08-28T13:44:26.130Z,97685.00
2018-08-28T13:46:55.428Z,97678.00
2018-08-28T13:49:24.601Z,97683.00
2018-08-28T13:51:53.841Z,97684.00
2018-08-28T13:54:23.178Z,97685.00
2018-08-28T13:56:52.323Z,97678.00
2018-08-28T13:59:21.529Z,97679.00
2018-08-28T14:01:50.779Z,97682.00
2018-08-28T14:04:20.017Z,97686.00
2018-08-28T14:06:49.241Z,97685.00
2018-08-28T14:09:18.473Z,97684.00
2018-08-28T14:11:47.732Z,97688.00
2018-08-28T14:14:16.985Z,97683.00
2018-08-28T14:16:46.274Z,97676.00
2018-08-28T14:19:15.489Z,97675.00
2018-08-28T14:21:44.736Z,97671.00
2018-08-28T14:24:13.944Z,97671.00
2018-08-28T14:26:43.222Z,97670.00
2018-08-28T14:29:12.487Z,97676.00
2018-08-28T14:31:41.724Z,97676.00
2018-08-28T14:34:10.961Z,97684.00
2018-08-28T14:36:40.174Z,97679.00
2018-08-28T14:39:09.437Z,97679.00
2018-08-28T14:41:38.656Z,97676.00
2018-08-28T14:44:08.139Z,97670.00
2018-08-28T14:46:37.577Z,97668.00
2018-08-28T14:49:06.929Z,97669.00
2018-08-28T14:51:36.165Z,97668.00
2018-08-28T14:54:05.446Z,97661.00
2018-08-28T14:56:34.857Z,97663.00
2018-08-28T14:59:04.022Z,97664.00
2018-08-28T15:01:33.250Z,97658.00
2018-08-28T15:04:02.544Z,97664.00
2018-08-28T15:06:31.760Z,97659.00
2018-08-28T15:09:01.012Z,97659.00
2018-08-28T15:11:30.272Z,97660.00
2018-08-28T15:13:59.540Z,97666.00
2018-08-28T15:16:28.807Z,97650.00
2018-08-28T15:18:58.113Z,97654.00
2018-08-28T15:21:27.325Z,97650.00
2018-08-28T15:23:56.557Z,97649.00
2018-08-28T15:26:25.764Z,97659.00
2018-08-28T15:28:55.003Z,97652.00
2018-08-28T15:31:24.233Z,97659.00
2018-08-28T15:33:53.475Z,97659.00
2018-08-28T15:36:22.699Z,97665.00
2018-08-28T15:38:51.971Z,97658.00
2018-08-28T15:41:21.172Z,97667.00
2018-08-28T15:43:50.396Z,97665.00
2018-08-28T15:46:19.643Z,97654.00
2018-08-28T15:48:48.905Z,97667.00
2018-08-28T15:51:19.264Z,97656.00
2018-08-28T15:53:48.517Z,97653.00
2018-08-28T15:56:17.726Z,97653.00
2018-08-28T15:58:47.015Z,97641.00
2018-08-28T16:01:16.245Z,97640.00
2018-08-28T16:03:45.543Z,97641.00
2018-08-28T16:06:14.844Z,97652.00
2018-08-28T16:08:44.091Z,97647.00
2018-08-28T16:11:13.337Z,97644.00
2018-08-28T16:13:42.589Z,97646.00
2018-08-28T16:16:11.845Z,97643.00
2018-08-28T16:18:41.114Z,97648.00
2018-08-28T16:21:10.381Z,97636.00
2018-08-28T16:23:42.198Z,97644.00
2018-08-28T16:26:11.412Z,97636.00
2018-08-28T16:28:41.750Z,97647.00
2018-08-28T16:31:10.939Z,97634.00
2018-08-28T16:33:40.210Z,97637.00
2018-08-28T16:36:09.456Z,97628.00
2018-08-28T16:38:38.721Z,97624.00
2018-08-28T16:41:08.070Z,97631.00
2018-08-28T16:43:37.264Z,97630.00
2018-08-28T16:46:06.492Z,97632.00
2018-08-28T16:48:35.781Z,97636.00
2018-08-28T16:51:05.021Z,97640.00
2018-08-28T16:53:34.285Z,97645.00
2018-08-28T16:56:03.559Z,97634.00
2018-08-28T16:58:32.816Z,97641.00
2018-08-28T17:01:02.088Z,97628.00
2018-08-28T17:03:31.363Z,97635.00
2018-08-28T17:06:00.641Z,97651.00
2018-08-28T17:08:29.877Z,97640.00
2018-08-28T17:10:59.180Z,97640.00
2018-08-28T17:13:28.479Z,97645.00
2018-08-28T17:15:57.769Z,97638.00
2018-08-28T17:18:27.044Z,97633.00
2018-08-28T17:20:56.331Z,97629.00
2018-08-28T17:23:25.561Z,97641.00
2018-08-28T17:25:54.782Z,97637.00
2018-08-28T17:28:24.045Z,97641.00
2018-08-28T17:30:53.326Z,97620.00
2018-08-28T17:33:22.592Z,97648.00
2018-08-28T17:35:51.821Z,97639.00
2018-08-28T17:38:21.087Z,97635.00
2018-08-28T17:40:50.317Z,97638.00
2018-08-28T17:43:19.561Z,97639.00
2018-08-28T17:45:48.800Z,97648.00
2018-08-28T17:48:18.042Z,97647.00
2018-08-28T17:50:47.363Z,97643.00
2018-08-28T17:53:16.664Z,97652.00
2018-08-28T17:55:45.897Z,97652.00
2018-08-28T17:58:15.121Z,97643.00
2018-08-28T18:00:51.147Z,97656.00
2018-08-28T18:03:20.425Z,97643.00
2018-08-28T18:05:49.726Z,97642.00
2018-08-28T18:08:18.948Z,97651.00
2018-08-28T18:10:48.280Z,97648.00
2018-08-28T18:13:17.460Z,97653.00
2018-08-28T18:15:46.743Z,97654.00
2018-08-28T18:18:15.997Z,97654.00
2018-08-28T18:20:45.249Z,97667.00
2018-08-28T18:23:14.485Z,97667.00
2018-08-28T18:25:43.737Z,97674.00
2018-08-28T18:28:12.954Z,97670.00
2018-08-28T18:30:42.201Z,97670.00
2018-08-28T18:33:11.389Z,97663.00
2018-08-28T18:35:40.670Z,97672.00
2018-08-28T18:38:09.879Z,97672.00
2018-08-28T18:40:39.136Z,97671.00
2018-08-28T18:43:08.378Z,97674.00
2018-08-28T18:45:37.630Z,97676.00
2018-08-28T18:48:06.905Z,97679.00
2018-08-28T18:50:36.175Z,97671.00
2018-08-28T18:53:05.440Z,97668.00
2018-08-28T18:55:34.726Z,97671.00
2018-08-28T18:58:03.969Z,97675.00
2018-08-28T19:00:33.243Z,97670.00
2018-08-28T19:03:02.653Z,97664.00
2018-08-28T19:05:31.898Z,97668.00
2018-08-28T19:08:01.223Z,97674.00
2018-08-28T19:10:30.585Z,97670.00
2018-08-28T19:12:59.897Z,97670.00
2018-08-28T19:15:29.234Z,97670.00
2018-08-28T19:17:58.466Z,97674.00
2018-08-28T19:20:28.044Z,97672.00
2018-08-28T19:22:58.724Z,97672.00
2018-08-28T19:25:28.034Z,97683.00
2018-08-28T19:27:57.264Z,97674.00
2018-08-28T19:30:26.508Z,97670.00
2018-08-28T19:32:55.869Z,97670.00
2018-08-28T19:35:25.139Z,97672.00
2018-08-28T19:37:54.403Z,97676.00
2018-08-28T19:40:23.635Z,97673.00
2018-08-28T19:42:52.878Z,97669.00
2018-08-28T19:45:22.198Z,97674.00
2018-08-28T19:47:51.499Z,97670.00
2018-08-28T19:50:20.824Z,97661.00
2018-08-28T19:52:50.136Z,97662.00
2018-08-28T19:55:19.433Z,97656.00
2018-08-28T19:57:48.670Z,97656.00
2018-08-28T20:00:17.937Z,97650.00
2018-08-28T20:02:47.194Z,97652.00
2018-08-28T20:05:16.477Z,97659.00
2018-08-28T20:07:45.752Z,97667.00
2018-08-28T20:10:15.454Z,97663.00
2018-08-28T20:12:44.767Z,97668.00
2018-08-28T20:15:14.090Z,97666.00
2018-08-28T20:17:43.356Z,97664.00
2018-08-28T20:20:12.602Z,97665.00
2018-08-28T20:22:41.836Z,97668.00
2018-08-28T20:25:11.077Z,97724.00
2018-08-28T20:27:40.289Z,97657.00
2018-08-28T20:30:09.576Z,97665.00
2018-08-28T20:32:38.801Z,97659.00
2018-08-28T20:35:08.128Z,97664.00
2018-08-28T20:37:37.348Z,97656.00
2018-08-28T20:40:06.905Z,97665.00
2018-08-28T20:42:36.372Z,97659.00
2018-08-28T20:45:05.738Z,97655.00
2018-08-28T20:47:34.950Z,97659.00
2018-08-28T20:50:04.209Z,97668.00
2018-08-28T20:52:33.478Z,97659.00
2018-08-28T20:55:02.735Z,97655.00
2018-08-28T20:57:31.968Z,97661.00
2018-08-28T21:00:01.311Z,97646.00
2018-08-28T21:02:30.933Z,97647.00
2018-08-28T21:05:00.214Z,97640.00
2018-08-28T21:07:29.497Z,97641.00
2018-08-28T21:09:58.778Z,97636.00
2018-08-28T21:12:28.287Z,97636.00
2018-08-28T21:14:57.544Z,97633.00
2018-08-28T21:17:26.803Z,97631.00
2018-08-28T21:19:56.045Z,97629.00
2018-08-28T21:22:25.253Z,97625.00
2018-08-28T21:24:54.494Z,97621.00
2018-08-28T21:27:23.724Z,97613.00
2018-08-28T21:29:52.935Z,97616.00
2018-08-28T21:32:22.235Z,97612.00
2018-08-28T21:34:51.456Z,97610.00
2018-08-28T21:37:20.752Z,97616.00
2018-08-28T21:39:49.944Z,97614.00
2018-08-28T21:42:19.278Z,97617.00
2018-08-28T21:44:48.500Z,97622.00
2018-08-28T21:47:17.758Z,97623.00
2018-08-28T21:49:47.576Z,97619.00
2018-08-28T21:52:16.822Z,97622.00
2018-08-28T21:54:46.441Z,97619.00
2018-08-28T21:57:15.752Z,97613.00
2018-08-28T21:59:44.982Z,97618.00
2018-08-28T22:02:14.213Z,97618.00
2018-08-28T22:04:43.420Z,97620.00
2018-08-28T22:07:18.049Z,97612.00
2018-08-28T22:09:47.251Z,97611.00
2018-08-28T22:12:16.501Z,97618.00
2018-08-28T22:14:45.740Z,97619.00
2018-08-28T22:17:15.019Z,97615.00
2018-08-28T22:19:44.239Z,97612.00
2018-08-28T22:22:13.478Z,97613.00
2018-08-28T22:24:42.711Z,97606.00
2018-08-28T22:27:11.955Z,97605.00
2018-08-28T22:29:41.193Z,97602.00
2018-08-28T22:32:10.440Z,97609.00
2018-08-28T22:34:39.656Z,97603.00
2018-08-28T22:37:08.883Z,97615.00
2018-08-28T22:39:38.103Z,97600.00
2018-08-28T22:42:07.347Z,97601.00
2018-08-28T22:44:36.578Z,97608.00
2018-08-28T22:47:05.831Z,97602.00
2018-08-28T22:49:35.052Z,97595.00
2018-08-28T22:52:04.307Z,97592.00
2018-08-28T22:54:33.511Z,97581.00
2018-08-28T22:57:02.780Z,97580.00
2018-08-28T22:59:32.011Z,97573.00
2018-08-28T23:02:01.233Z,97577.00
2018-08-28T23:04:30.467Z,97562.00
2018-08-28T23:06:59.724Z,97566.00
2018-08-28T23:09:28.927Z,97571.00
2018-08-28T23:11:58.164Z,97561.00
2018-08-28T23:14:27.394Z,97567.00
2018-08-28T23:16:56.624Z,97560.00
2018-08-28T23:19:25.823Z,97553.00
2018-08-28T23:21:55.024Z,97552.00
2018-08-28T23:24:24.298Z,97554.00
2018-08-28T23:26:53.528Z,97549.00
2018-08-28T23:29:22.787Z,97546.00
2018-08-28T23:31:52.026Z,97537.00
2018-08-28T23:34:21.264Z,97539.00
2018-08-28T23:36:50.549Z,97540.00
2018-08-28T23:39:19.791Z,97541.00
2018-08-28T23:41:49.011Z,97533.00
2018-08-28T23:44:18.215Z,97535.00
2018-08-28T23:46:47.444Z,97527.00
2018-08-28T23:49:16.688Z,97534.00
2018-08-28T23:51:45.964Z,97536.00
2018-08-28T23:54:16.207Z,97527.00
2018-08-28T23:56:45.431Z,97533.00
2018-08-28T23:59:14.681Z,97537.00
